createdAt,value
2022-09-10T00:01:01.892Z,16.47
2022-09-10T00:03:29.504Z,16.46
2022-09-10T00:05:57.093Z,16.45
2022-09-10T00:08:24.926Z,16.42
2022-09-10T00:10:53.027Z,16.42
2022-09-10T00:13:23.223Z,16.49
2022-09-10T00:15:53.026Z,16.46
2022-09-10T00:18:22.952Z,16.48
2022-09-10T00:20:53.063Z,16.55
2022-09-10T00:23:23.841Z,16.54
2022-09-10T00:25:53.351Z,16.57
2022-09-10T00:28:24.241Z,16.46
2022-09-10T00:30:54.507Z,16.49
2022-09-10T00:33:23.182Z,16.49
2022-09-10T00:35:51.033Z,16.53
2022-09-10T00:38:18.728Z,16.59
2022-09-10T00:40:46.998Z,16.67
2022-09-10T00:43:18.625Z,16.67
2022-09-10T00:45:50.662Z,16.59
2022-09-10T00:48:23.202Z,16.57
2022-09-10T00:50:51.748Z,16.55
2022-09-10T00:53:29.219Z,16.50
2022-09-10T00:56:00.150Z,16.53
2022-09-10T00:58:29.602Z,16.47
2022-09-10T01:01:00.978Z,16.40
2022-09-10T01:03:30.230Z,16.37
2022-09-10T01:05:58.562Z,16.31
2022-09-10T01:08:27.305Z,16.27
2022-09-10T01:11:10.026Z,16.26
2022-09-10T01:14:00.510Z,16.26
2022-09-10T01:16:37.414Z,16.21
2022-09-10T01:19:26.892Z,16.23
2022-09-10T01:22:06.278Z,16.30
2022-09-10T01:24:52.157Z,16.42
2022-09-10T01:27:33.030Z,16.44
2022-09-10T01:30:06.568Z,16.52
2022-09-10T01:32:40.757Z,16.57
2022-09-10T01:35:16.192Z,16.61
2022-09-10T01:37:47.430Z,16.66
2022-09-10T01:40:17.632Z,16.70
2022-09-10T01:42:47.010Z,16.73
2022-09-10T01:45:16.247Z,16.74
2022-09-10T01:48:04.321Z,16.74
2022-09-10T01:50:41.194Z,16.74
2022-09-10T01:53:31.404Z,16.73
2022-09-10T01:56:05.070Z,16.74
2022-09-10T01:58:38.511Z,16.73
2022-09-10T02:01:14.889Z,16.73
2022-09-10T02:03:45.069Z,16.66
2022-09-10T02:06:16.611Z,16.63
2022-09-10T02:08:48.751Z,16.62
2022-09-10T02:11:16.891Z,16.61
2022-09-10T02:13:45.919Z,16.61
2022-09-10T02:16:16.709Z,16.61
2022-09-10T02:18:44.638Z,16.62
2022-09-10T02:21:13.149Z,16.65
2022-09-10T02:23:44.437Z,16.68
2022-09-10T02:26:14.265Z,16.70
2022-09-10T02:28:43.474Z,16.57
2022-09-10T02:31:12.979Z,16.44
2022-09-10T02:33:40.658Z,16.35
2022-09-10T02:36:08.804Z,16.41
2022-09-10T02:38:36.433Z,16.41
2022-09-10T02:41:04.089Z,16.29
2022-09-10T02:43:31.746Z,16.26
2022-09-10T02:46:00.443Z,16.26
2022-09-10T02:48:30.829Z,16.25
2022-09-10T02:50:59.036Z,16.30
2022-09-10T02:53:26.952Z,16.33
2022-09-10T02:55:55.186Z,16.43
2022-09-10T02:58:22.789Z,16.49
2022-09-10T03:00:50.682Z,16.53
2022-09-10T03:03:19.318Z,16.56
2022-09-10T03:05:48.221Z,16.58
2022-09-10T03:08:15.990Z,16.59
2022-09-10T03:10:43.564Z,16.61
2022-09-10T03:13:11.198Z,16.64
2022-09-10T03:15:39.095Z,16.65
2022-09-10T03:18:06.979Z,16.66
2022-09-10T03:20:34.607Z,16.68
2022-09-10T03:23:03.908Z,16.65
2022-09-10T03:25:31.529Z,16.66
2022-09-10T03:27:59.739Z,16.67
2022-09-10T03:30:27.338Z,16.68
2022-09-10T03:32:55.060Z,16.70
2022-09-10T03:35:22.632Z,16.70
2022-09-10T03:37:50.368Z,16.63
2022-09-10T03:40:19.298Z,16.59
2022-09-10T03:42:46.937Z,16.58
2022-09-10T03:45:14.620Z,16.58
2022-09-10T03:47:42.431Z,16.54
2022-09-10T03:50:10.549Z,16.54
2022-09-10T03:52:38.151Z,16.45
2022-09-10T03:55:06.483Z,16.47
2022-09-10T03:57:35.365Z,16.48
2022-09-10T04:00:03.221Z,16.51
2022-09-10T04:02:30.897Z,16.52
2022-09-10T04:04:58.583Z,16.52
2022-09-10T04:07:26.169Z,16.53
2022-09-10T04:09:53.782Z,16.53
2022-09-10T04:12:21.353Z,16.52
2022-09-10T04:14:50.259Z,16.44
2022-09-10T04:17:17.962Z,16.46
2022-09-10T04:19:45.642Z,16.46
2022-09-10T04:22:13.317Z,16.42
2022-09-10T04:24:42.162Z,16.39
2022-09-10T04:27:09.755Z,16.40
2022-09-10T04:29:38.116Z,16.46
2022-09-10T04:32:07.321Z,16.43
2022-09-10T04:34:34.989Z,16.43
2022-09-10T04:37:02.574Z,16.43
2022-09-10T04:39:30.193Z,16.41
2022-09-10T04:41:57.976Z,16.40
2022-09-10T04:44:25.632Z,16.38
2022-09-10T04:46:53.201Z,16.41
2022-09-10T04:49:22.389Z,16.42
2022-09-10T04:51:49.983Z,16.42
2022-09-10T04:54:17.867Z,16.40
2022-09-10T04:56:47.629Z,16.41
2022-09-10T04:59:15.331Z,16.40
2022-09-10T05:01:42.956Z,16.33
2022-09-10T05:04:10.630Z,16.31
2022-09-10T05:06:39.590Z,16.31
2022-09-10T05:09:07.216Z,16.36
2022-09-10T05:11:36.672Z,16.37
2022-09-10T05:14:05.271Z,16.38
2022-09-10T05:16:33.003Z,16.39
2022-09-10T05:19:00.701Z,16.40
2022-09-10T05:21:29.105Z,16.39
2022-09-10T05:23:58.083Z,16.37
2022-09-10T05:26:26.274Z,16.39
2022-09-10T05:28:54.836Z,16.39
2022-09-10T05:31:22.504Z,16.41
2022-09-10T05:33:50.130Z,16.42
2022-09-10T05:36:17.813Z,16.43
2022-09-10T05:38:46.354Z,16.45
2022-09-10T05:41:15.455Z,16.43
2022-09-10T05:43:43.090Z,16.42
2022-09-10T05:46:10.742Z,16.48
2022-09-10T05:48:41.769Z,16.47
2022-09-10T05:51:09.800Z,16.43
2022-09-10T05:53:38.241Z,16.46
2022-09-10T05:56:07.479Z,16.46
2022-09-10T05:58:36.688Z,16.47
2022-09-10T06:01:04.466Z,16.45
2022-09-10T06:03:32.094Z,16.47
2022-09-10T06:05:59.711Z,16.48
2022-09-10T06:08:27.313Z,16.50
2022-09-10T06:10:57.695Z,16.53
2022-09-10T06:13:25.919Z,16.52
2022-09-10T06:15:55.209Z,16.55
2022-09-10T06:18:23.379Z,16.53
2022-09-10T06:20:52.500Z,16.56
2022-09-10T06:23:20.259Z,16.58
2022-09-10T06:25:48.111Z,16.60
2022-09-10T06:28:15.988Z,16.63
2022-09-10T06:30:43.635Z,16.62
2022-09-10T06:33:13.976Z,16.61
2022-09-10T06:35:41.589Z,16.61
2022-09-10T06:38:09.181Z,16.68
2022-09-10T06:40:38.075Z,16.69
2022-09-10T06:43:05.961Z,16.77
2022-09-10T06:45:33.589Z,16.91
2022-09-10T06:50:54.970Z,16.95
2022-09-10T06:53:24.042Z,16.93
2022-09-10T06:55:52.040Z,16.98
2022-09-10T06:58:20.787Z,17.05
2022-09-10T07:00:48.588Z,17.09
2022-09-10T07:03:16.762Z,17.10
2022-09-10T07:05:45.544Z,17.17
2022-09-10T07:08:17.311Z,17.29
2022-09-10T07:10:47.251Z,17.40
2022-09-10T07:13:15.360Z,17.49
2022-09-10T07:15:47.342Z,17.45
2022-09-10T07:18:15.314Z,17.57
2022-09-10T07:20:43.747Z,17.62
2022-09-10T07:23:12.829Z,17.69
2022-09-10T07:25:42.630Z,17.76
2022-09-10T07:28:14.018Z,17.79
2022-09-10T07:30:42.801Z,17.91
2022-09-10T07:33:12.034Z,17.96
2022-09-10T07:35:40.269Z,18.03
2022-09-10T07:38:14.194Z,18.06
2022-09-10T07:40:44.017Z,18.16
2022-09-10T07:43:11.816Z,18.11
2022-09-10T07:45:41.525Z,18.11
2022-09-10T07:48:09.167Z,18.16
2022-09-10T07:50:37.048Z,18.01
2022-09-10T07:53:05.391Z,18.28
2022-09-10T07:55:33.576Z,18.25
2022-09-10T07:58:02.854Z,18.39
2022-09-10T08:00:30.885Z,18.19
2022-09-10T08:02:58.609Z,18.18
2022-09-10T08:05:28.827Z,18.34
2022-09-10T08:08:02.355Z,18.34
2022-09-10T08:10:30.510Z,18.27
2022-09-10T08:12:59.186Z,18.35
2022-09-10T08:15:28.626Z,18.37
2022-09-10T08:17:56.542Z,18.53
2022-09-10T08:20:26.564Z,18.70
2022-09-10T08:22:57.218Z,18.65
2022-09-10T08:25:25.156Z,18.65
2022-09-10T08:27:52.882Z,18.83
2022-09-10T08:30:20.508Z,18.87
2022-09-10T08:32:49.805Z,18.94
2022-09-10T08:35:17.724Z,18.89
2022-09-10T08:37:45.338Z,18.88
2022-09-10T08:40:14.526Z,19.04
2022-09-10T08:42:46.605Z,19.14
2022-09-10T08:45:20.645Z,19.02
2022-09-10T08:47:56.637Z,19.18
2022-09-10T08:50:32.328Z,19.22
2022-09-10T08:53:10.804Z,18.87
2022-09-10T08:55:44.989Z,18.89
2022-09-10T08:58:20.787Z,18.81
2022-09-10T09:00:52.957Z,18.69
2022-09-10T09:03:28.309Z,18.78
2022-09-10T09:05:58.814Z,18.76
2022-09-10T09:08:28.855Z,18.96
2022-09-10T09:11:05.948Z,18.96
2022-09-10T09:13:58.221Z,18.81
2022-09-10T09:16:41.681Z,18.68
2022-09-10T09:19:25.159Z,18.75
2022-09-10T09:21:54.010Z,18.75
2022-09-10T09:24:31.423Z,18.76
2022-09-10T09:27:09.773Z,18.77
2022-09-10T09:29:45.187Z,18.84
2022-09-10T09:32:18.662Z,18.76
2022-09-10T09:34:51.216Z,18.91
2022-09-10T09:37:21.161Z,19.00
2022-09-10T09:39:59.483Z,19.04
2022-09-10T09:42:39.859Z,19.07
2022-09-10T09:45:17.197Z,19.11
2022-09-10T09:47:45.827Z,19.10
2022-09-10T09:50:18.381Z,19.07
2022-09-10T09:52:47.383Z,19.04
2022-09-10T09:55:27.303Z,19.04
2022-09-10T09:58:30.458Z,18.99
2022-09-10T10:01:12.945Z,19.03
2022-09-10T10:03:50.150Z,19.09
2022-09-10T10:06:20.575Z,19.09
2022-09-10T10:08:55.923Z,19.06
2022-09-10T10:11:39.352Z,19.10
2022-09-10T10:14:23.391Z,19.14
2022-09-10T10:16:57.402Z,19.18
2022-09-10T10:19:33.976Z,19.20
2022-09-10T10:22:21.158Z,19.55
2022-09-10T10:24:51.342Z,19.68
2022-09-10T10:27:24.194Z,19.80
2022-09-10T10:29:56.295Z,19.76
2022-09-10T10:32:44.557Z,19.63
2022-09-10T10:35:35.753Z,19.70
2022-09-10T10:38:29.957Z,19.73
2022-09-10T10:41:24.448Z,19.56
2022-09-10T10:44:07.488Z,19.65
2022-09-10T10:46:44.881Z,19.72
2022-09-10T10:49:26.551Z,19.75
2022-09-10T10:52:08.754Z,19.73
2022-09-10T10:54:52.402Z,19.70
2022-09-10T10:57:29.562Z,19.85
2022-09-10T11:00:02.119Z,19.99
2022-09-10T11:02:41.516Z,20.08
2022-09-10T11:05:21.412Z,20.10
2022-09-10T11:07:49.418Z,19.93
2022-09-10T11:10:24.125Z,19.98
2022-09-10T11:13:02.698Z,20.07
2022-09-10T11:15:36.242Z,20.17
2022-09-10T11:18:11.560Z,20.35
2022-09-10T11:20:45.172Z,20.41
2022-09-10T11:23:24.696Z,20.43
2022-09-10T11:26:00.454Z,20.57
2022-09-10T11:28:32.436Z,20.57
2022-09-10T11:31:07.629Z,20.56
2022-09-10T11:33:43.083Z,20.66
2022-09-10T11:36:17.328Z,20.70
2022-09-10T11:38:52.883Z,20.56
2022-09-10T11:41:25.804Z,20.68
2022-09-10T11:44:00.761Z,20.72
2022-09-10T11:46:34.601Z,20.89
2022-09-10T11:49:10.190Z,21.23
2022-09-10T11:51:39.098Z,21.28
2022-09-10T11:54:13.515Z,21.09
2022-09-10T11:56:53.837Z,21.22
2022-09-10T11:59:37.353Z,21.26
2022-09-10T12:02:32.581Z,21.40
2022-09-10T12:05:09.339Z,21.58
2022-09-10T12:07:46.965Z,21.74
2022-09-10T12:10:24.078Z,21.82
2022-09-10T12:12:53.414Z,21.97
2022-09-10T12:15:23.372Z,22.05
2022-09-10T12:17:57.711Z,21.84
2022-09-10T12:20:31.913Z,21.56
2022-09-10T12:23:00.985Z,21.47
2022-09-10T12:25:34.533Z,21.42
2022-09-10T12:28:07.741Z,21.40
2022-09-10T12:31:03.727Z,21.51
2022-09-10T12:34:07.473Z,21.68
2022-09-10T12:37:16.073Z,21.52
2022-09-10T12:39:45.782Z,21.24
2022-09-10T12:42:31.725Z,21.17
2022-09-10T12:45:00.080Z,21.18
2022-09-10T12:47:47.028Z,21.07
2022-09-10T12:50:23.120Z,20.92
2022-09-10T12:53:12.083Z,20.89
2022-09-10T12:55:53.635Z,20.71
2022-09-10T12:58:30.067Z,20.67
2022-09-10T13:01:11.859Z,20.56
2022-09-10T13:03:54.005Z,20.56
2022-09-10T13:06:35.912Z,20.70
2022-09-10T13:09:16.764Z,20.83
2022-09-10T13:11:49.511Z,20.92
2022-09-10T13:14:22.200Z,20.91
2022-09-10T13:16:50.400Z,20.91
2022-09-10T13:19:50.991Z,20.91
2022-09-10T13:23:03.843Z,20.76
2022-09-10T13:25:41.488Z,20.82
2022-09-10T13:29:00.645Z,20.79
2022-09-10T13:31:33.454Z,20.92
2022-09-10T13:34:36.018Z,21.00
2022-09-10T13:37:26.491Z,21.04
2022-09-10T13:40:19.074Z,21.10
2022-09-10T13:43:01.741Z,21.09
2022-09-10T13:45:38.541Z,21.05
2022-09-10T13:48:14.848Z,21.11
2022-09-10T13:50:50.741Z,21.15
2022-09-10T13:53:20.669Z,21.10
2022-09-10T13:55:56.493Z,20.99
2022-09-10T13:58:28.556Z,20.87
2022-09-10T14:00:58.613Z,20.74
2022-09-10T14:03:32.884Z,20.63
2022-09-10T14:06:04.156Z,20.61
2022-09-10T14:08:35.798Z,20.65
2022-09-10T14:11:08.047Z,20.52
2022-09-10T14:13:40.407Z,20.56
2022-09-10T14:16:12.235Z,20.59
2022-09-10T14:18:45.718Z,20.64
2022-09-10T14:21:15.557Z,20.63
2022-09-10T14:23:45.821Z,20.55
2022-09-10T14:26:19.794Z,20.59
2022-09-10T14:28:52.681Z,20.65
2022-09-10T14:31:24.256Z,20.79
2022-09-10T14:33:54.750Z,20.88
2022-09-10T14:36:31.247Z,20.98
2022-09-10T14:39:06.442Z,20.86
2022-09-10T14:41:36.731Z,20.83
2022-09-10T14:44:29.695Z,20.82
2022-09-10T14:47:00.275Z,20.79
2022-09-10T14:49:31.773Z,20.47
2022-09-10T14:52:01.515Z,20.48
2022-09-10T14:54:31.925Z,20.57
2022-09-10T14:57:02.830Z,20.51
2022-09-10T14:59:34.306Z,20.59
2022-09-10T15:02:05.938Z,20.63
2022-09-10T15:04:34.911Z,20.56
2022-09-10T15:07:02.698Z,20.57
2022-09-10T15:09:31.227Z,20.60
2022-09-10T15:12:05.031Z,20.71
2022-09-10T15:14:33.582Z,20.73
2022-09-10T15:17:01.477Z,20.77
2022-09-10T15:19:29.409Z,20.76
2022-09-10T15:21:59.576Z,20.80
2022-09-10T15:24:28.478Z,20.84
2022-09-10T15:26:57.269Z,20.83
2022-09-10T15:29:26.119Z,20.82
2022-09-10T15:31:54.422Z,20.80
2022-09-10T15:34:22.012Z,20.66
2022-09-10T15:36:49.674Z,20.65
2022-09-10T15:39:18.588Z,20.67
2022-09-10T15:41:46.283Z,20.70
2022-09-10T15:44:14.081Z,20.75
2022-09-10T15:46:44.455Z,20.74
2022-09-10T15:49:12.605Z,20.71
2022-09-10T15:51:41.251Z,20.70
2022-09-10T15:54:10.737Z,20.69
2022-09-10T15:56:40.666Z,20.71
2022-09-10T15:59:09.002Z,20.71
2022-09-10T16:01:38.252Z,20.67
2022-09-10T16:04:06.803Z,20.62
2022-09-10T16:06:36.515Z,20.58
2022-09-10T16:09:07.067Z,20.57
2022-09-10T16:11:37.122Z,20.53
2022-09-10T16:14:08.427Z,20.56
2022-09-10T16:16:37.250Z,20.58
2022-09-10T16:19:05.462Z,20.57
2022-09-10T16:21:36.023Z,20.53
2022-09-10T16:24:06.203Z,20.49
2022-09-10T16:26:36.469Z,20.47
2022-09-10T16:29:07.196Z,20.46
2022-09-10T16:31:36.597Z,20.49
2022-09-10T16:34:06.063Z,20.46
2022-09-10T16:36:36.836Z,20.45
2022-09-10T16:39:07.253Z,20.45
2022-09-10T16:41:34.817Z,20.45
2022-09-10T16:44:02.794Z,20.41
2022-09-10T16:46:31.825Z,20.42
2022-09-10T16:48:59.676Z,20.38
2022-09-10T16:51:29.041Z,20.32
2022-09-10T16:54:01.508Z,20.27
2022-09-10T16:56:30.658Z,20.22
2022-09-10T16:58:58.297Z,20.14
2022-09-10T17:01:25.977Z,20.16
2022-09-10T17:03:55.193Z,20.12
2022-09-10T17:06:25.116Z,20.18
2022-09-10T17:08:59.152Z,20.27
2022-09-10T17:11:32.003Z,20.36
2022-09-10T17:14:01.212Z,20.40
2022-09-10T17:16:30.796Z,20.42
2022-09-10T17:19:01.953Z,20.44
2022-09-10T17:21:33.454Z,20.49
2022-09-10T17:24:02.993Z,20.52
2022-09-10T17:26:31.689Z,20.51
2022-09-10T17:29:01.045Z,20.49
2022-09-10T17:31:29.785Z,20.58
2022-09-10T17:33:59.066Z,20.56
2022-09-10T17:36:29.151Z,20.54
2022-09-10T17:38:58.885Z,20.54
2022-09-10T17:41:27.961Z,20.52
2022-09-10T17:43:56.450Z,20.50
2022-09-10T17:46:24.224Z,20.52
2022-09-10T17:48:53.493Z,20.52
2022-09-10T17:51:22.976Z,20.49
2022-09-10T17:53:53.034Z,20.47
2022-09-10T17:56:21.015Z,20.39
2022-09-10T17:58:49.320Z,20.34
2022-09-10T18:01:23.286Z,20.36
2022-09-10T18:03:51.662Z,20.36
2022-09-10T18:06:21.356Z,20.37
2022-09-10T18:08:50.335Z,20.38
2022-09-10T18:11:22.000Z,20.38
2022-09-10T18:13:50.745Z,20.38
2022-09-10T18:16:21.391Z,20.39
2022-09-10T18:18:53.750Z,20.37
2022-09-10T18:21:23.895Z,20.35
2022-09-10T18:23:53.214Z,20.36
2022-09-10T18:26:25.879Z,20.34
2022-09-10T18:28:56.350Z,20.31
2022-09-10T18:31:25.084Z,20.26
2022-09-10T18:33:53.610Z,20.23
2022-09-10T18:36:21.671Z,20.19
2022-09-10T18:38:49.694Z,20.17
2022-09-10T18:41:19.858Z,20.14
2022-09-10T18:43:55.570Z,20.16
2022-09-10T18:46:24.200Z,20.11
2022-09-10T18:48:52.746Z,20.08
2022-09-10T18:51:22.173Z,20.04
2022-09-10T18:53:53.901Z,19.98
2022-09-10T18:56:24.122Z,19.97
2022-09-10T18:58:56.028Z,19.96
2022-09-10T19:01:24.884Z,19.95
2022-09-10T19:03:53.008Z,19.96
2022-09-10T19:06:22.880Z,19.95
2022-09-10T19:08:53.406Z,19.95
2022-09-10T19:11:22.298Z,19.94
2022-09-10T19:13:52.050Z,19.92
2022-09-10T19:16:22.993Z,19.90
2022-09-10T19:18:53.616Z,19.89
2022-09-10T19:21:22.051Z,19.87
2022-09-10T19:23:50.567Z,19.85
2022-09-10T19:26:19.183Z,19.86
2022-09-10T19:28:47.710Z,19.83
2022-09-10T19:31:17.643Z,19.84
2022-09-10T19:33:48.002Z,19.83
2022-09-10T19:36:17.645Z,19.80
2022-09-10T19:38:46.936Z,19.79
2022-09-10T19:41:18.771Z,19.78
2022-09-10T19:43:47.740Z,19.78
2022-09-10T19:46:16.954Z,19.79
2022-09-10T19:48:47.046Z,19.77
2022-09-10T19:51:16.700Z,19.74
2022-09-10T19:53:44.927Z,19.73
2022-09-10T19:56:19.711Z,19.66
2022-09-10T19:58:50.586Z,19.63
2022-09-10T20:01:20.852Z,19.58
2022-09-10T20:03:52.009Z,19.57
2022-09-10T20:06:23.387Z,19.54
2022-09-10T20:08:50.985Z,19.54
2022-09-10T20:11:20.322Z,19.52
2022-09-10T20:13:48.517Z,19.49
2022-09-10T20:16:18.301Z,19.47
2022-09-10T20:18:46.597Z,19.40
2022-09-10T20:21:17.723Z,19.36
2022-09-10T20:23:47.076Z,19.34
2022-09-10T20:26:17.038Z,19.32
2022-09-10T20:28:45.189Z,19.27
2022-09-10T20:31:13.841Z,19.25
2022-09-10T20:33:43.374Z,19.22
2022-09-10T20:36:14.114Z,19.23
2022-09-10T20:38:43.475Z,19.24
2022-09-10T20:41:12.784Z,19.25
2022-09-10T20:43:40.864Z,19.27
2022-09-10T20:46:15.734Z,19.23
2022-09-10T20:48:48.859Z,19.24
2022-09-10T20:51:18.395Z,19.23
2022-09-10T20:53:48.390Z,19.25
2022-09-10T20:56:19.204Z,19.24
2022-09-10T20:58:47.849Z,19.18
2022-09-10T21:01:18.836Z,19.16
2022-09-10T21:03:48.234Z,19.14
2022-09-10T21:06:19.604Z,19.12
2022-09-10T21:08:49.230Z,19.08
2022-09-10T21:11:18.676Z,19.03
2022-09-10T21:13:47.836Z,19.00
2022-09-10T21:16:18.028Z,19.03
2022-09-10T21:18:53.587Z,19.04
2022-09-10T21:21:25.263Z,19.03
2022-09-10T21:23:55.755Z,19.02
2022-09-10T21:26:26.510Z,19.00
2022-09-10T21:28:56.097Z,18.96
2022-09-10T21:31:24.251Z,18.92
2022-09-10T21:33:52.294Z,18.86
2022-09-10T21:36:21.495Z,18.84
2022-09-10T21:38:49.394Z,18.82
2022-09-10T21:41:21.319Z,18.83
2022-09-10T21:43:48.990Z,18.82
2022-09-10T21:46:16.600Z,18.81
2022-09-10T21:48:45.020Z,18.79
2022-09-10T21:51:14.399Z,18.80
2022-09-10T21:53:43.010Z,18.78
2022-09-10T21:56:12.411Z,18.76
2022-09-10T21:58:43.143Z,18.76
2022-09-10T22:01:12.828Z,18.74
2022-09-10T22:03:41.004Z,18.79
2022-09-10T22:06:10.397Z,18.84
2022-09-10T22:08:40.335Z,18.85
2022-09-10T22:11:09.964Z,18.83
2022-09-10T22:13:38.981Z,18.84
2022-09-10T22:16:09.131Z,18.82
2022-09-10T22:18:37.927Z,18.81
2022-09-10T22:21:06.767Z,18.79
2022-09-10T22:23:36.883Z,18.78
2022-09-10T22:26:05.421Z,18.78
2022-09-10T22:28:34.914Z,18.79
2022-09-10T22:31:13.050Z,18.79
2022-09-10T22:33:42.929Z,18.78
2022-09-10T22:36:15.763Z,18.79
2022-09-10T22:38:44.281Z,18.77
2022-09-10T22:41:14.284Z,18.78
2022-09-10T22:43:42.702Z,18.77
2022-09-10T22:46:12.117Z,18.76
2022-09-10T22:48:42.453Z,18.70
2022-09-10T22:51:11.931Z,18.54
2022-09-10T22:53:41.754Z,18.48
2022-09-10T22:56:10.601Z,18.47
2022-09-10T22:58:39.156Z,18.45
2022-09-10T23:01:08.968Z,18.43
2022-09-10T23:03:38.250Z,18.43
2022-09-10T23:06:08.324Z,18.42
2022-09-10T23:08:37.036Z,18.33
2022-09-10T23:11:09.352Z,18.30
2022-09-10T23:13:37.240Z,18.25
2022-09-10T23:16:15.547Z,18.16
2022-09-10T23:18:48.221Z,18.20
2022-09-10T23:21:15.834Z,18.22
2022-09-10T23:23:46.538Z,18.24
2022-09-10T23:26:14.538Z,18.25
2022-09-10T23:28:43.024Z,18.24
2022-09-10T23:31:13.341Z,18.22
2022-09-10T23:33:44.231Z,18.19
2022-09-10T23:36:13.380Z,18.07
2022-09-10T23:38:42.535Z,18.05
2022-09-10T23:41:11.759Z,18.08
2022-09-10T23:43:40.234Z,18.06
2022-09-10T23:46:09.102Z,18.03
2022-09-10T23:48:36.710Z,18.03
2022-09-10T23:51:06.907Z,18.04
2022-09-10T23:53:34.502Z,18.04
2022-09-10T23:56:02.997Z,17.94
2022-09-10T23:58:30.923Z,17.84
